Irving South's Hourly Summary for Sunday, July 8, 2018
Hour Temp
(f)
RH
(%)
Solar Rad.
(MJ/m2)
Rainfall
(in)
Wind
(mph)
7/8/2018 12:00 AM 85 53 0 0 1.75
7/8/2018 1:00 AM 84 57 0 0 1.42
7/8/2018 2:00 AM 81 60 0 0 0.18
7/8/2018 3:00 AM 79 64 0 0 0.15
7/8/2018 4:00 AM 78 69 0 0 0
7/8/2018 5:00 AM 76 72 0 0 0
7/8/2018 6:00 AM 76 74 0 0 0
7/8/2018 7:00 AM 76 73 0.02 0 0
7/8/2018 8:00 AM 78 67 0.16 0 0.09
7/8/2018 9:00 AM 81 61 1.02 0 2.06
7/8/2018 10:00 AM 83 57 1.72 0 2.91
7/8/2018 11:00 AM 85 53 2.39 0 3.15
7/8/2018 12:00 PM 87 47 2.42 0 3.27
7/8/2018 1:00 PM 90 41 3.04 0 3.34
7/8/2018 2:00 PM 90 38 2.32 0 3.54
7/8/2018 3:00 PM 92 37 3.27 0 4.34
7/8/2018 4:00 PM 93 35 2 0 4.84
7/8/2018 5:00 PM 94 32 2.42 0 5.27
7/8/2018 6:00 PM 92 35 1.7 0 2.93
7/8/2018 7:00 PM 91 42 1.19 0 2.72
7/8/2018 8:00 PM 88 46 0.5 0 1.88
7/8/2018 9:00 PM 85 50 0.03 0 0.85
7/8/2018 10:00 PM 82 57 0 0 0.41
7/8/2018 11:00 PM 81 60 0 0 0.4
Data Summary 84 53 24.20 0.00 1.90